Time;durP1;ratioP1;P1;durP2;ratioP2;P2;SDS_P1;SDS_P2;PMS_P1;PMS_P2;Temp;Humidity;BMP_temperature;BMP_pressure;BME280_temperature;BME280_humidity;BME280_pressure;Samples;Min_cycle;Max_cycle;Signal;HPM_P1;HPM_P2
2022/10/31 00:01:59;;;;;;;1.03;0.93;;;;;;;0.64;61.53;100823.66;4841593;29;20036;-73
2022/10/31 00:04:25;;;;;;;1.30;1.03;;;;;;;0.60;61.25;100830.88;4825184;29;20455;-73
2022/10/31 00:06:50;;;;;;;1.63;1.13;;;;;;;0.67;61.28;100840.03;4841449;29;20030;-74
2022/10/31 00:09:16;;;;;;;2.30;1.20;;;;;;;0.63;61.54;100835.09;4825366;29;20053;-73
2022/10/31 00:11:42;;;;;;;1.30;1.20;;;;;;;0.62;61.56;100855.22;4842141;29;20464;-75
2022/10/31 00:14:09;;;;;;;2.80;1.10;;;;;;;0.63;61.90;100867.38;4860360;29;20041;-74
2022/10/31 00:16:34;;;;;;;3.03;1.00;;;;;;;0.61;61.79;100857.00;4860412;29;20795;-73
2022/10/31 00:19:03;;;;;;;1.20;1.10;;;;;;;0.52;62.18;100854.91;4843264;29;20061;-74
2022/10/31 00:21:30;;;;;;;1.00;1.00;;;;;;;0.61;62.12;100877.13;4860336;29;20034;-73
2022/10/31 00:23:56;;;;;;;2.13;1.03;;;;;;;0.58;62.42;100867.66;4860165;29;20030;-73
2022/10/31 00:26:22;;;;;;;3.77;1.40;;;;;;;0.58;62.52;100874.69;4859831;29;20345;-75
2022/10/31 00:28:48;;;;;;;2.13;1.03;;;;;;;0.57;62.53;100881.69;4859940;29;20353;-75
2022/10/31 00:31:14;;;;;;;2.17;1.10;;;;;;;0.56;62.20;100889.63;4859590;29;20459;-75
2022/10/31 00:33:41;;;;;;;1.87;1.10;;;;;;;0.52;62.90;100877.66;4859879;29;20263;-74
2022/10/31 00:36:08;;;;;;;2.70;1.23;;;;;;;0.52;63.29;100873.25;4859688;29;20033;-74
2022/10/31 00:38:33;;;;;;;2.87;1.30;;;;;;;0.53;63.19;100876.72;4859875;29;20258;-75
2022/10/31 00:40:59;;;;;;;2.13;1.10;;;;;;;0.46;63.65;100888.53;4859399;29;20294;-73
2022/10/31 00:43:24;;;;;;;1.00;0.90;;;;;;;0.44;63.94;100890.41;4859476;29;20041;-74
2022/10/31 00:45:50;;;;;;;2.70;1.67;;;;;;;0.44;64.15;100895.66;4842772;29;20134;-73
2022/10/31 00:48:16;;;;;;;2.10;1.20;;;;;;;0.18;64.42;100869.28;4859471;29;20125;-75
2022/10/31 00:50:42;;;;;;;1.80;1.30;;;;;;;0.41;64.73;100901.94;4859945;29;20349;-74
2022/10/31 00:53:08;;;;;;;1.47;1.20;;;;;;;0.44;64.98;100921.84;4859679;29;20030;-73
2022/10/31 00:55:33;;;;;;;2.67;1.23;;;;;;;0.40;64.70;100907.25;4859633;29;20124;-75
2022/10/31 00:57:59;;;;;;;1.10;1.00;;;;;;;0.40;65.45;100921.19;4859340;29;20361;-73
2022/10/31 01:00:26;;;;;;;2.90;1.30;;;;;;;0.35;65.45;100914.56;4859133;29;20037;-74
2022/10/31 01:02:51;;;;;;;5.10;2.80;;;;;;;0.37;65.45;100937.13;4859382;29;20041;-75
2022/10/31 01:05:17;;;;;;;3.87;1.30;;;;;;;0.35;65.83;100923.25;4859763;29;20261;-74
2022/10/31 01:07:43;;;;;;;1.10;1.00;;;;;;;0.34;65.82;100925.97;4860391;29;20151;-73
2022/10/31 01:10:09;;;;;;;1.30;1.20;;;;;;;0.37;65.60;100946.75;4862888;29;20056;-75
2022/10/31 01:12:36;;;;;;;1.07;0.93;;;;;;;0.38;65.71;100954.50;4863689;29;20199;-73
2022/10/31 01:15:03;;;;;;;1.70;1.10;;;;;;;0.36;66.01;100959.00;4862477;29;20286;-74
2022/10/31 01:17:29;;;;;;;3.53;1.20;;;;;;;0.31;65.79;100953.22;4862943;29;20270;-73
2022/10/31 01:19:57;;;;;;;1.20;1.10;;;;;;;0.34;66.67;100965.28;4862746;29;20306;-74
2022/10/31 01:22:22;;;;;;;1.67;1.40;;;;;;;-0.03;67.06;100913.28;4862622;29;20350;-74
2022/10/31 01:24:48;;;;;;;7.53;1.33;;;;;;;0.22;66.95;100970.28;4862806;29;20386;-74
2022/10/31 01:27:13;;;;;;;1.93;1.50;;;;;;;0.15;67.23;100941.94;4862473;29;20527;-75
2022/10/31 01:29:39;;;;;;;2.10;1.20;;;;;;;0.27;67.42;100980.50;4862421;29;20037;-74
2022/10/31 01:32:04;;;;;;;1.47;1.30;;;;;;;0.23;67.67;100968.53;4846110;29;20141;-73
2022/10/31 01:34:30;;;;;;;1.27;1.17;;;;;;;0.15;67.38;100963.75;4863021;29;20082;-74
2022/10/31 01:36:55;;;;;;;2.60;1.13;;;;;;;0.20;68.13;100976.56;4861679;29;20033;-73
2022/10/31 01:39:21;;;;;;;1.20;1.10;;;;;;;0.21;68.21;100978.25;4862387;29;20033;-75
2022/10/31 01:41:50;;;;;;;1.50;1.40;;;;;;;0.19;68.10;100994.06;4862777;29;20482;-74
2022/10/31 01:44:15;;;;;;;2.13;1.10;;;;;;;0.21;68.08;100989.56;4862838;29;20037;-73
2022/10/31 01:46:41;;;;;;;1.80;1.40;;;;;;;0.19;68.22;100996.66;4862546;29;20258;-75
2022/10/31 01:49:16;;;;;;;2.70;1.23;;;;;;;0.12;68.56;100995.34;4862851;29;20327;-74
2022/10/31 01:51:47;;;;;;;1.27;1.17;;;;;;;0.12;68.96;101000.59;4863194;29;20549;-74
2022/10/31 01:54:17;;;;;;;1.20;1.10;;;;;;;0.10;68.95;100999.84;4862558;29;20809;-76
2022/10/31 01:56:48;;;;;;;1.20;1.10;;;;;;;0.12;68.98;101020.69;4862564;29;20301;-76
2022/10/31 01:59:17;;;;;;;1.37;1.27;;;;;;;0.09;68.61;101016.50;4862618;29;20270;-74
2022/10/31 02:01:43;;;;;;;3.10;1.20;;;;;;;0.07;69.11;101018.34;4862554;29;20661;-73
2022/10/31 02:04:09;;;;;;;1.80;1.30;;;;;;;0.05;69.63;101020.22;4862615;29;20254;-74
2022/10/31 02:06:53;;;;;;;1.50;1.17;;;;;;;0.08;69.37;101035.75;4861902;29;20041;-73
2022/10/31 02:09:23;;;;;;;1.40;1.30;;;;;;;0.09;69.32;101031.34;4862213;29;20070;-72
2022/10/31 02:11:52;;;;;;;1.40;1.30;;;;;;;0.13;69.32;101033.72;4862333;29;20377;-74
2022/10/31 02:14:19;;;;;;;1.87;1.30;;;;;;;0.09;69.48;101037.44;4861892;29;20305;-74
2022/10/31 02:16:46;;;;;;;;;;;;;;;0.13;69.45;101049.41;4862847;29;20623;-74
2022/10/31 02:19:37;;;;;;;1.57;1.30;;;;;;;0.09;70.13;101041.84;4862152;29;19912;-75
2022/10/31 02:22:21;;;;;;;3.30;1.40;;;;;;;0.05;69.69;101050.81;4861701;29;20065;-74
2022/10/31 02:25:05;;;;;;;6.60;1.57;;;;;;;0.07;69.98;101055.03;4862694;29;20263;-74
2022/10/31 02:28:08;;;;;;;3.97;1.43;;;;;;;0.08;70.20;101059.31;4863313;29;20268;-74
2022/10/31 02:31:15;;;;;;;1.40;1.30;;;;;;;0.06;70.69;101061.19;4862033;29;20670;-74
2022/10/31 02:33:55;;;;;;;1.40;1.20;;;;;;;0.03;71.16;101056.13;4843134;29;20278;-73
2022/10/31 02:36:36;;;;;;;1.53;1.30;;;;;;;-0.06;70.68;101049.63;4845640;29;20262;-74
2022/10/31 02:39:37;;;;;;;1.50;1.30;;;;;;;-0.09;70.83;101054.19;4864914;29;20604;-74
2022/10/31 02:42:24;;;;;;;2.43;1.30;;;;;;;-0.02;71.62;101074.69;4864590;29;20262;-75
2022/10/31 02:45:05;;;;;;;1.60;1.50;;;;;;;-0.05;71.45;101087.13;4865667;29;20281;-73
2022/10/31 02:47:36;;;;;;;1.50;1.37;;;;;;;-0.09;71.78;101075.13;4864952;29;20259;-74
2022/10/31 02:50:12;;;;;;;2.50;1.20;;;;;;;-0.07;72.10;101094.22;4863627;29;20266;-75
2022/10/31 02:52:38;;;;;;;2.17;1.63;;;;;;;-0.07;71.82;101094.22;4864563;29;20262;-73
2022/10/31 02:55:22;;;;;;;2.37;1.13;;;;;;;-0.07;72.31;101096.84;4864709;29;20319;-75
2022/10/31 02:57:49;;;;;;;1.40;1.30;;;;;;;-0.17;72.41;101090.44;4864925;29;20277;-75
2022/10/31 03:00:15;;;;;;;1.30;1.20;;;;;;;-0.18;72.62;101096.59;4864047;29;20294;-75
2022/10/31 03:03:02;;;;;;;1.37;1.27;;;;;;;-0.14;73.42;101108.59;4861508;29;20282;-74
2022/10/31 03:05:46;;;;;;;1.27;1.17;;;;;;;-0.17;73.21;101112.22;4861254;29;20067;-75
2022/10/31 03:08:32;;;;;;;2.90;1.20;;;;;;;-0.17;73.30;101127.94;4861254;29;20274;-76
2022/10/31 03:11:08;;;;;;;2.70;1.30;;;;;;;-0.17;73.47;101129.72;4844501;29;20279;-74
2022/10/31 03:14:00;;;;;;;1.60;1.20;;;;;;;-0.21;73.48;101128.19;4861417;29;20846;-74
2022/10/31 03:16:48;;;;;;;2.50;1.43;;;;;;;-0.31;73.38;101112.97;4860439;29;20309;-74
2022/10/31 03:19:23;;;;;;;2.37;2.17;;;;;;;-0.21;73.42;101143.91;4861266;29;20285;-74
2022/10/31 03:21:57;;;;;;;3.63;1.67;;;;;;;-0.21;74.11;101149.13;4861194;29;20277;-74
2022/10/31 03:24:29;;;;;;;2.57;1.37;;;;;;;-0.25;74.30;101158.94;4861030;29;20262;-74
2022/10/31 03:26:59;;;;;;;3.43;1.20;;;;;;;-0.25;74.47;101158.94;4860807;29;20270;-73
2022/10/31 03:29:30;;;;;;;2.70;1.20;;;;;;;-0.33;74.85;101150.63;4860991;29;20258;-73
2022/10/31 03:32:06;;;;;;;4.17;1.63;;;;;;;-0.40;74.85;101141.44;4861431;29;20258;-73
2022/10/31 03:34:31;;;;;;;2.37;1.37;;;;;;;-0.39;74.83;101151.81;4861266;29;20274;-73
2022/10/31 03:37:02;;;;;;;6.80;1.63;;;;;;;-0.29;74.99;101167.84;4860657;29;20392;-75
2022/10/31 03:39:29;;;;;;;2.27;1.13;;;;;;;-0.33;75.31;101167.19;4862353;29;20477;-74
2022/10/31 03:41:59;;;;;;;1.83;1.40;;;;;;;-0.30;75.17;101179.25;4862313;29;20266;-74
2022/10/31 03:44:29;;;;;;;4.63;1.60;;;;;;;-0.29;75.66;101177.47;4862046;29;20273;-74
2022/10/31 03:46:54;;;;;;;4.63;2.07;;;;;;;-0.39;76.10;101172.75;4862529;29;20397;-73
2022/10/31 03:49:21;;;;;;;5.67;1.83;;;;;;;-0.34;75.59;101175.97;4863233;29;20269;-73
2022/10/31 03:52:00;;;;;;;1.67;1.40;;;;;;;-0.29;75.83;101182.72;4863701;29;20033;-74
2022/10/31 03:54:34;;;;;;;3.10;1.70;;;;;;;-0.43;75.72;101165.16;4861320;29;20270;-74
2022/10/31 03:57:07;;;;;;;4.47;2.27;;;;;;;-0.33;76.04;101175.03;4861098;29;20254;-73
2022/10/31 03:59:39;;;;;;;1.80;1.53;;;;;;;-0.33;76.11;101177.66;4860437;29;20755;-73
2022/10/31 04:02:14;;;;;;;8.13;2.70;;;;;;;-0.35;75.77;101173.44;4860397;29;20258;-73
2022/10/31 04:04:41;;;;;;;8.77;1.57;;;;;;;-0.33;75.92;101171.56;4860093;29;20611;-74
2022/10/31 04:07:09;;;;;;;3.97;1.30;;;;;;;-0.29;75.94;101182.72;4860281;29;20584;-73
2022/10/31 04:09:38;;;;;;;2.53;1.43;;;;;;;-0.32;76.12;101179.34;4843272;29;20659;-74
2022/10/31 04:12:08;;;;;;;2.90;1.37;;;;;;;-0.33;76.05;101185.50;4860607;29;20282;-74
2022/10/31 04:14:47;;;;;;;2.40;1.70;;;;;;;-0.39;76.19;101175.38;4860190;29;20471;-75
2022/10/31 04:17:15;;;;;;;;;;;;;;;-0.29;75.95;101187.94;4860401;29;20290;-73
2022/10/31 04:19:42;;;;;;;1.57;1.30;;;;;;;-0.33;76.19;101193.34;4860485;29;19916;-74
2022/10/31 04:22:07;;;;;;;4.63;1.63;;;;;;;-0.32;76.08;101192.41;4860562;29;20301;-73
2022/10/31 04:24:33;;;;;;;2.30;1.53;;;;;;;-0.39;76.22;101182.38;4861086;29;20071;-74
2022/10/31 04:26:58;;;;;;;2.47;1.43;;;;;;;-0.32;76.27;101200.28;4861007;29;20041;-73
2022/10/31 04:29:24;;;;;;;1.90;1.60;;;;;;;-0.34;76.23;101202.13;4860921;29;20066;-74
2022/10/31 04:31:49;;;;;;;6.50;2.03;;;;;;;-0.32;76.29;101202.03;4861042;29;20039;-74
2022/10/31 04:34:15;;;;;;;1.70;1.57;;;;;;;-0.34;76.19;101201.28;4861043;29;20418;-73
2022/10/31 04:36:40;;;;;;;1.77;1.50;;;;;;;-0.38;76.32;101195.38;4861053;29;20121;-74
2022/10/31 04:39:06;;;;;;;2.90;1.30;;;;;;;-0.37;76.27;101197.06;4861120;29;20470;-73
2022/10/31 04:41:31;;;;;;;1.73;1.53;;;;;;;-0.38;76.42;101198.00;4861158;29;20097;-74
2022/10/31 04:43:57;;;;;;;3.70;1.53;;;;;;;-0.37;76.90;101196.22;4862817;29;20041;-73
2022/10/31 04:46:22;;;;;;;5.23;1.67;;;;;;;-0.38;77.39;101205.00;4863987;29;20478;-73
2022/10/31 04:48:48;;;;;;;3.93;1.80;;;;;;;-0.48;77.57;101207.25;4847768;29;20029;-74
2022/10/31 04:51:14;;;;;;;3.17;2.23;;;;;;;-0.42;77.38;101208.72;4863334;29;20037;-74
2022/10/31 04:53:39;;;;;;;2.07;1.40;;;;;;;-0.48;77.43;101202.03;4863407;29;20269;-74
2022/10/31 04:56:05;;;;;;;4.67;1.57;;;;;;;-0.47;77.37;101201.09;4863661;29;20469;-75
2022/10/31 04:58:31;;;;;;;2.07;1.50;;;;;;;-0.50;77.97;101209.13;4863348;29;20033;-73
2022/10/31 05:00:56;;;;;;;4.07;1.40;;;;;;;-0.43;78.28;101223.56;4863526;29;20542;-72
2022/10/31 05:03:22;;;;;;;5.20;2.07;;;;;;;-0.55;77.89;101208.53;4863446;29;20128;-73
2022/10/31 05:05:47;;;;;;;5.27;1.53;;;;;;;-0.41;77.74;101237.41;4862610;29;20052;-73
2022/10/31 05:08:13;;;;;;;4.93;1.67;;;;;;;-0.49;78.03;101229.13;4862647;29;20040;-76
2022/10/31 05:10:44;;;;;;;1.90;1.53;;;;;;;-0.49;78.22;101238.75;4862519;29;20490;-74
2022/10/31 05:13:10;;;;;;;2.33;1.63;;;;;;;-0.44;78.38;101253.28;4862326;29;20635;-74
2022/10/31 05:15:36;;;;;;;3.20;1.57;;;;;;;-0.52;77.93;101245.00;4863145;29;20270;-76
2022/10/31 05:18:01;;;;;;;3.67;1.60;;;;;;;-0.45;77.92;101256.81;4862579;29;20443;-74
2022/10/31 05:20:30;;;;;;;1.33;1.23;;;;;;;-0.46;77.89;101268.22;4862825;29;20033;-74
2022/10/31 05:22:57;;;;;;;1.85;1.45;;;;;;;-0.46;78.45;101267.38;4846235;29;20064;-75
2022/10/31 05:25:26;;;;;;;2.40;1.53;;;;;;;-0.44;78.59;101278.59;4862399;29;20034;-74
2022/10/31 05:27:52;;;;;;;;;;;;;;;-0.45;78.21;101288.22;4861954;29;20341;-73
2022/10/31 05:30:23;;;;;;;2.37;1.70;;;;;;;-0.48;78.42;101283.16;4862893;29;19941;-74
2022/10/31 05:32:52;;;;;;;6.23;2.00;;;;;;;-0.50;78.42;101294.63;4845781;29;20334;-76
2022/10/31 05:35:29;;;;;;;4.57;1.73;;;;;;;-0.49;78.55;101301.53;4861061;29;20361;-75
2022/10/31 05:37:55;;;;;;;2.67;2.10;;;;;;;-0.57;78.38;101283.63;4861596;29;20270;-73
2022/10/31 05:40:21;;;;;;;3.43;2.03;;;;;;;-0.48;78.57;101309.31;4862465;29;20354;-75
2022/10/31 05:42:50;;;;;;;6.33;2.33;;;;;;;-0.49;78.79;101305.00;4862231;29;20116;-75
2022/10/31 05:45:17;;;;;;;4.20;2.30;;;;;;;-0.45;78.55;101310.91;4862605;29;20630;-73
2022/10/31 05:47:49;;;;;;;5.40;2.00;;;;;;;-0.49;78.63;101299.78;4862155;29;20137;-75
2022/10/31 05:50:15;;;;;;;5.70;2.27;;;;;;;-0.50;78.70;101295.47;4862081;29;20396;-73
2022/10/31 05:52:40;;;;;;;3.43;1.73;;;;;;;-0.44;78.10;101304.75;4862323;29;20646;-74
2022/10/31 05:55:06;;;;;;;5.03;2.17;;;;;;;-0.58;78.68;101276.69;4861888;29;20335;-73
2022/10/31 05:57:32;;;;;;;5.23;2.87;;;;;;;-0.40;78.86;101295.81;4862131;29;20482;-74
2022/10/31 05:59:58;;;;;;;5.33;1.97;;;;;;;-0.39;78.66;101300.97;4862139;29;20070;-75
2022/10/31 06:02:25;;;;;;;4.30;2.00;;;;;;;-0.39;78.95;101303.59;4830289;29;20274;-76
2022/10/31 06:04:53;;;;;;;6.87;2.50;;;;;;;-0.48;79.03;101285.75;4861830;29;20277;-74
2022/10/31 06:07:19;;;;;;;2.80;1.50;;;;;;;-0.30;78.79;101312.72;4862775;29;20266;-75
2022/10/31 06:09:44;;;;;;;7.20;2.07;;;;;;;-0.27;78.87;101322.22;4862092;29;20558;-76
2022/10/31 06:12:11;;;;;;;3.50;1.70;;;;;;;-0.28;78.66;101321.38;4861740;29;20037;-76
2022/10/31 06:14:37;;;;;;;4.00;2.57;;;;;;;-0.27;78.75;101317.84;4861644;29;20585;-75
2022/10/31 06:17:02;;;;;;;8.77;3.10;;;;;;;-0.20;78.71;101334.91;4861619;29;20041;-75
2022/10/31 06:19:28;;;;;;;7.90;2.23;;;;;;;-0.26;78.27;101339.63;4861524;29;20116;-77
2022/10/31 06:21:53;;;;;;;2.30;1.53;;;;;;;-0.13;78.06;101335.44;4861873;29;20034;-74
2022/10/31 06:24:19;;;;;;;2.10;1.80;;;;;;;-0.07;77.77;101335.09;4861880;29;20117;-74
2022/10/31 06:26:44;;;;;;;4.27;2.17;;;;;;;-0.04;77.56;101341.00;4861510;29;20037;-76
2022/10/31 06:29:10;;;;;;;4.07;1.57;;;;;;;0.17;76.47;101331.19;4861303;29;20120;-74
2022/10/31 06:31:35;;;;;;;5.43;1.90;;;;;;;0.34;76.08;101337.31;4859867;29;20049;-73
2022/10/31 06:34:01;;;;;;;2.70;1.70;;;;;;;0.36;75.97;101340.69;4861144;29;20164;-73
2022/10/31 06:36:26;;;;;;;2.83;1.70;;;;;;;0.32;76.05;101326.06;4861899;29;20086;-75
2022/10/31 06:38:52;;;;;;;3.70;2.20;;;;;;;0.21;76.40;101324.00;4862591;29;20470;-74
2022/10/31 06:41:17;;;;;;;4.13;1.70;;;;;;;0.15;77.08;101324.34;4861691;29;20039;-74
2022/10/31 06:43:46;;;;;;;2.07;1.63;;;;;;;0.20;77.29;101349.34;4861750;29;20395;-78
2022/10/31 06:46:12;;;;;;;7.57;1.53;;;;;;;0.21;77.23;101345.81;4862226;29;20025;-72
2022/10/31 06:48:37;;;;;;;4.87;2.20;;;;;;;0.24;77.33;101343.00;4861196;29;20803;-74
2022/10/31 06:51:03;;;;;;;8.57;2.17;;;;;;;0.19;77.54;101331.94;4862268;29;20029;-74
2022/10/31 06:53:29;;;;;;;6.13;2.83;;;;;;;0.34;77.12;101348.63;4861601;29;20120;-74
2022/10/31 06:55:58;;;;;;;6.57;1.90;;;;;;;0.35;77.24;101337.22;4844261;29;20432;-73
2022/10/31 06:58:24;;;;;;;3.83;1.58;;;;;;;0.43;77.09;101348.13;4861105;29;20646;-75
2022/10/31 07:00:49;;;;;;;34.90;4.73;;;;;;;0.48;76.63;101356.56;4861183;29;20030;-74
2022/10/31 07:03:17;;;;;;;5.80;1.63;;;;;;;0.56;76.41;101353.53;4861420;29;20041;-73
2022/10/31 07:05:43;;;;;;;2.83;1.60;;;;;;;0.65;76.35;101360.91;4860608;29;20040;-74
2022/10/31 07:08:12;;;;;;;4.67;1.60;;;;;;;0.53;76.28;101362.41;4860989;29;20038;-75
2022/10/31 07:10:41;;;;;;;3.55;1.80;;;;;;;0.71;76.40;101378.91;4773093;29;2352946;-74
2022/10/31 07:13:13;;;;;;;1.73;1.50;;;;;;;0.75;76.33;101380.44;4842428;29;20045;-75
2022/10/31 07:15:40;;;;;;;8.47;1.70;;;;;;;0.84;76.23;101382.53;4842123;29;20271;-74
2022/10/31 07:18:10;;;;;;;9.40;1.80;;;;;;;0.81;75.60;101377.47;4826512;29;20275;-76
2022/10/31 07:20:35;;;;;;;4.07;1.67;;;;;;;0.96;74.97;101388.03;4842801;29;20648;-75
2022/10/31 07:23:05;;;;;;;5.87;1.87;;;;;;;1.03;74.87;101395.47;4842872;29;20279;-75
2022/10/31 07:25:30;;;;;;;2.90;1.50;;;;;;;1.08;74.86;101395.22;4842107;29;20360;-75
2022/10/31 07:27:56;;;;;;;3.53;2.23;;;;;;;1.04;74.70;101383.19;4825517;29;20882;-74
2022/10/31 07:30:22;;;;;;;7.70;2.40;;;;;;;1.13;74.10;101393.16;4842832;29;20041;-77
2022/10/31 07:32:49;;;;;;;7.13;2.50;;;;;;;1.36;74.30;101428.59;4843329;29;20034;-75
2022/10/31 07:35:17;;;;;;;9.23;2.00;;;;;;;1.43;73.56;101436.03;4842997;29;20065;-75
2022/10/31 07:37:45;;;;;;;7.30;2.08;;;;;;;1.47;73.34;101432.31;4826436;29;20271;-76
2022/10/31 07:40:11;;;;;;;3.33;2.20;;;;;;;1.53;72.95;101434.59;4843287;29;20038;-75
2022/10/31 07:42:39;;;;;;;13.27;3.53;;;;;;;1.62;72.88;101432.38;4842369;29;20525;-76
2022/10/31 07:45:09;;;;;;;10.10;2.17;;;;;;;1.70;72.08;101440.63;4841551;29;20278;-74
2022/10/31 07:47:46;;;;;;;7.60;2.10;;;;;;;1.78;71.79;101448.94;4842712;29;20262;-75
2022/10/31 07:50:15;;;;;;;5.00;2.10;;;;;;;1.76;71.88;101437.69;4842348;29;20286;-75
2022/10/31 07:52:41;;;;;;;17.07;3.50;;;;;;;1.80;71.48;101447.91;4842357;29;20403;-74
2022/10/31 07:55:07;;;;;;;7.53;2.13;;;;;;;1.89;71.81;101451.75;4841601;29;20358;-75
2022/10/31 07:57:32;;;;;;;7.20;2.07;;;;;;;2.06;71.15;101445.53;4841619;29;20038;-73
2022/10/31 07:59:58;;;;;;;4.70;2.00;;;;;;;2.11;70.16;101452.19;4841573;29;20263;-75
2022/10/31 08:02:24;;;;;;;5.10;2.27;;;;;;;1.97;70.29;101433.75;4825580;29;20081;-75
2022/10/31 08:04:50;;;;;;;3.67;2.13;;;;;;;2.07;70.21;101471.72;4841827;29;20497;-74
2022/10/31 08:07:16;;;;;;;3.43;2.13;;;;;;;2.14;70.32;101470.41;4841732;29;20255;-75
2022/10/31 08:09:43;;;;;;;13.23;2.73;;;;;;;2.13;70.58;101468.72;4841241;29;20034;-73
2022/10/31 08:12:08;;;;;;;5.17;1.83;;;;;;;2.28;69.49;101490.59;4841539;29;20045;-74
2022/10/31 08:14:34;;;;;;;3.70;2.23;;;;;;;2.26;69.35;101495.09;4841566;29;20255;-75
2022/10/31 08:16:59;;;;;;;4.03;2.10;;;;;;;2.30;69.38;101499.22;4841760;29;20033;-74
2022/10/31 08:19:25;;;;;;;6.03;2.00;;;;;;;2.09;69.39;101464.56;4842472;29;20040;-74
2022/10/31 08:21:51;;;;;;;4.47;2.17;;;;;;;2.26;69.67;101495.09;4845368;29;20085;-76
2022/10/31 08:24:18;;;;;;;4.43;2.00;;;;;;;2.29;69.67;101501.94;4850028;29;20053;-74
2022/10/31 08:26:43;;;;;;;3.93;2.80;;;;;;;2.32;69.37;101512.31;4843456;29;20575;-74
2022/10/31 08:29:09;;;;;;;6.30;2.87;;;;;;;2.24;69.75;101509.25;4841794;29;20262;-76
2022/10/31 08:31:35;;;;;;;1.90;1.70;;;;;;;2.24;69.72;101510.09;4841622;29;20046;-75
2022/10/31 08:34:00;;;;;;;5.20;2.40;;;;;;;2.16;69.86;101521.09;4842028;29;20486;-74
2022/10/31 08:36:27;;;;;;;5.87;2.20;;;;;;;2.01;69.68;101506.19;4842353;29;20065;-74
2022/10/31 08:38:52;;;;;;;3.17;1.53;;;;;;;2.16;70.28;101523.72;4841376;29;20034;-77
2022/10/31 08:41:18;;;;;;;5.13;1.97;;;;;;;2.08;70.35;101525.09;4841254;29;20259;-74
2022/10/31 08:43:43;;;;;;;4.13;2.60;;;;;;;2.05;71.08;101520.03;4841468;29;20030;-76
2022/10/31 08:46:09;;;;;;;3.77;2.10;;;;;;;2.04;70.67;101529.69;4825206;29;20071;-78
2022/10/31 08:48:34;;;;;;;3.90;2.30;;;;;;;1.98;70.99;101527.41;4841533;29;20530;-74
2022/10/31 08:51:00;;;;;;;16.03;2.00;;;;;;;2.00;70.74;101527.31;4841583;29;20037;-77
2022/10/31 08:53:26;;;;;;;5.33;1.83;;;;;;;2.01;70.41;101529.00;4824844;29;20079;-76
2022/10/31 08:55:54;;;;;;;4.70;2.77;;;;;;;2.10;70.92;101533.75;4841598;29;20040;-74
2022/10/31 08:58:20;;;;;;;6.15;3.42;;;;;;;2.20;70.33;101534.03;4841728;29;20270;-75
2022/10/31 09:00:50;;;;;;;2.63;1.63;;;;;;;2.67;68.68;101542.59;4841918;29;20034;-75
2022/10/31 09:03:18;;;;;;;5.93;1.90;;;;;;;3.30;65.59;101547.44;4825576;29;20286;-74
2022/10/31 09:05:43;;;;;;;4.43;1.80;;;;;;;3.82;63.55;101549.38;4841761;29;20324;-76
2022/10/31 09:08:09;;;;;;;5.23;2.17;;;;;;;3.92;61.62;101531.16;4841196;29;20543;-75
2022/10/31 09:10:40;;;;;;;5.93;3.30;;;;;;;3.67;63.18;101537.19;4841076;29;20141;-75
2022/10/31 09:13:13;;;;;;;3.50;1.70;;;;;;;3.71;62.42;101557.09;4841213;29;20038;-75
2022/10/31 09:15:41;;;;;;;3.47;1.90;;;;;;;3.64;63.11;101563.72;4841776;29;20731;-76
2022/10/31 09:18:07;;;;;;;3.03;1.60;;;;;;;3.49;63.76;101554.19;4841594;29;20259;-73
2022/10/31 09:20:34;;;;;;;6.00;2.10;;;;;;;3.46;64.34;101559.63;4841465;29;20275;-75
2022/10/31 09:23:20;;;;;;;4.17;2.47;;;;;;;3.35;64.92;101558.50;4841886;29;20255;-74
2022/10/31 09:25:48;;;;;;;5.73;2.50;;;;;;;3.18;65.54;101553.47;4841628;29;20290;-74
2022/10/31 09:28:17;;;;;;;3.37;1.80;;;;;;;3.04;65.69;101569.28;4842601;29;20274;-75
2022/10/31 09:30:46;;;;;;;6.33;2.00;;;;;;;2.86;65.86;101555.44;4844358;29;20286;-75
2022/10/31 09:33:12;;;;;;;;;;;;;;;2.88;66.54;101579.03;4845317;29;20432;-76
2022/10/31 09:35:38;;;;;;;3.30;1.70;;;;;;;2.84;66.96;101582.78;4845667;29;19912;-75
2022/10/31 09:38:08;;;;;;;5.87;1.80;;;;;;;2.87;66.62;101593.97;4845211;29;20048;-74
2022/10/31 09:41:11;;;;;;;6.03;1.83;;;;;;;2.81;66.42;101604.88;4844185;29;20271;-74
2022/10/31 09:43:37;;;;;;;5.40;1.90;;;;;;;2.70;67.22;101608.16;4827212;29;20777;-75
2022/10/31 09:46:47;;;;;;;7.23;1.90;;;;;;;2.71;67.46;101607.22;4844091;29;20255;-75
2022/10/31 09:49:35;;;;;;;4.93;2.23;;;;;;;2.65;67.60;101612.84;4844564;29;20034;-78
2022/10/31 09:52:05;;;;;;;4.53;1.77;;;;;;;2.59;67.40;101615.81;4844420;29;20752;-76
2022/10/31 09:54:34;;;;;;;7.60;1.90;;;;;;;2.57;67.39;101615.06;4844508;29;20271;-75
2022/10/31 09:57:01;;;;;;;5.40;1.70;;;;;;;2.71;67.25;101617.72;4844112;29;20262;-76
2022/10/31 09:59:33;;;;;;;3.47;1.90;;;;;;;3.06;66.43;101630.53;4843377;29;20271;-74
2022/10/31 10:02:18;;;;;;;3.47;1.50;;;;;;;3.17;65.15;101638.63;4843955;29;20620;-73
2022/10/31 10:04:56;;;;;;;4.07;1.50;;;;;;;2.98;65.42;101633.66;4843938;29;20254;-75
2022/10/31 10:07:50;;;;;;;3.58;1.42;;;;;;;2.78;66.29;101637.47;4843825;29;20740;-75
2022/10/31 10:10:31;;;;;;;4.23;1.60;;;;;;;2.68;66.55;101641.59;4843669;29;20085;-75
2022/10/31 10:12:59;;;;;;;4.67;2.00;;;;;;;2.67;66.39;101637.25;4827297;29;20283;-73
2022/10/31 10:15:47;;;;;;;5.47;1.63;;;;;;;2.65;67.01;101635.66;4842319;29;20274;-73
2022/10/31 10:18:53;;;;;;;8.17;1.93;;;;;;;2.69;67.08;101638.00;4843734;29;20061;-74
2022/10/31 10:21:37;;;;;;;3.73;1.63;;;;;;;2.73;66.90;101644.78;4843525;29;20608;-73
2022/10/31 10:24:36;;;;;;;3.60;1.73;;;;;;;2.78;67.50;101642.72;4843548;29;20263;-74
2022/10/31 10:27:50;;;;;;;3.07;1.50;;;;;;;2.90;66.97;101635.06;4812333;29;20295;-75
2022/10/31 10:30:17;;;;;;;2.17;1.90;;;;;;;2.96;66.25;101645.22;4829616;29;20773;-79
2022/10/31 10:32:51;;;;;;;9.03;2.00;;;;;;;2.92;65.54;101648.97;4843473;29;20263;-74
2022/10/31 10:35:31;;;;;;;1.60;1.20;;;;;;;2.88;65.73;101639.53;4843663;29;20274;-75
2022/10/31 10:38:18;;;;;;;4.10;1.40;;;;;;;2.75;66.27;101642.91;4843345;29;20263;-75
2022/10/31 10:40:44;;;;;;;3.73;1.70;;;;;;;2.76;65.96;101643.75;4842910;29;20349;-74
2022/10/31 10:43:37;;;;;;;4.33;1.40;;;;;;;2.79;66.66;101647.03;4843053;29;20767;-76
2022/10/31 10:49:14;;;;;;;3.63;1.87;;;;;;;2.84;66.51;101640.66;4843236;29;20269;-74
2022/10/31 10:52:07;;;;;;;5.73;1.93;;;;;;;2.87;66.10;101645.75;4843223;29;20394;-74
2022/10/31 10:54:49;;;;;;;5.67;2.57;;;;;;;2.93;66.23;101650.66;4822009;29;20779;-75
2022/10/31 10:57:33;;;;;;;9.30;2.73;;;;;;;2.99;66.25;101650.28;4843608;29;20267;-75
2022/10/31 11:00:20;;;;;;;4.10;1.37;;;;;;;3.00;65.66;101655.44;4843998;29;20255;-75
2022/10/31 11:02:47;;;;;;;2.80;2.50;;;;;;;3.00;65.73;101651.97;4843379;29;20803;-78
2022/10/31 11:05:32;;;;;;;6.27;2.00;;;;;;;2.95;66.05;101643.50;4842858;29;20412;-75
2022/10/31 11:07:58;;;;;;;5.17;1.47;;;;;;;3.00;65.17;101658.09;4843003;29;20278;-76
2022/10/31 11:10:24;;;;;;;8.73;4.00;;;;;;;2.95;65.60;101652.25;4842319;29;20302;-76
2022/10/31 11:13:26;;;;;;;11.23;2.57;;;;;;;3.01;65.79;101651.03;4842268;29;20094;-76
2022/10/31 11:16:03;;;;;;;5.77;2.03;;;;;;;2.99;66.33;101655.53;4787683;30;20063;-74
2022/10/31 11:18:31;;;;;;;6.20;1.80;;;;;;;3.02;66.07;101663.25;4842609;29;20292;-74
2022/10/31 11:21:00;;;;;;;3.17;1.80;;;;;;;2.91;65.63;101648.13;4834641;29;20274;-75
2022/10/31 11:23:28;;;;;;;8.50;1.98;;;;;;;3.02;65.52;101650.09;4850064;29;20037;-75
2022/10/31 11:26:02;;;;;;;7.10;2.80;;;;;;;3.03;65.60;101644.75;4848842;29;20030;-76
2022/10/31 11:28:30;;;;;;;4.60;2.97;;;;;;;2.99;65.35;101640.59;4842511;29;20751;-75
2022/10/31 11:31:00;;;;;;;10.70;5.13;;;;;;;3.07;65.79;101663.81;4842228;29;20302;-75
2022/10/31 11:33:31;;;;;;;5.07;2.50;;;;;;;2.80;65.18;101604.03;4842808;29;20295;-74
2022/10/31 11:35:58;;;;;;;6.77;2.10;;;;;;;3.09;65.63;101648.78;4842442;29;20783;-75
2022/10/31 11:38:31;;;;;;;4.53;2.20;;;;;;;3.12;64.99;101651.22;4842051;29;20290;-73
2022/10/31 11:41:05;;;;;;;7.57;3.43;;;;;;;3.12;65.23;101656.47;4841982;29;20271;-75
2022/10/31 11:43:31;;;;;;;5.87;2.27;;;;;;;3.16;64.92;101647.47;4825677;29;20736;-75
2022/10/31 11:45:56;;;;;;;6.77;2.10;;;;;;;3.24;65.33;101650.50;4841561;29;20288;-74
2022/10/31 11:48:25;;;;;;;6.50;2.03;;;;;;;3.34;64.78;101661.28;4841469;29;20026;-75
2022/10/31 11:50:59;;;;;;;5.10;1.60;;;;;;;3.39;64.32;101654.81;4841875;29;20038;-75